CP5 weather

CLOSED Red Bay Water Aerodrome
Red Bay, Newfoundland and Labrador, Canada

Public forecast

Using degrees Celsius for public forecast. Weather courtesy of forecast.io.

METAR (pilot weather report)

Closest report is St. Anthony Airport, 24.1 nm (44.5 km) SE. Retrieved 2019/07/20 04:43 UTC (0 seconds ago):

CYAY 200443Z AUTO 03007KT 9SM BKN008 OVC016 09/08 A2966 RMK SLP045

TAF (pilot weather forecast)

Closest forecast is St. Anthony Airport, 24.1 nm (44.5 km) SE. Retrieved 2019/07/20 02:42 UTC (2 hours ago):

TAF TAF CYAY 200138Z 2002/2014 36010KT P6SM OVC020 TEMPO 2002/2004 SCT020 OVC030 FM200400 02010KT 6SM BR SCT007 OVC015 TEMPO 2004/2008 21/2SM BR OVC007 FM200800 04010KT 21/2SM BR BKN007 OVC012 FM201200 05010KT P6SM SCT007 OVC012 RMK FCST BASED ON AUTO OBS. NXT FCST BY 200800Z